sensor_id;sensor_type;location;lat;lon;timestamp;P1;durP1;ratioP1;P2;durP2;ratioP2
2866;SDS011;1441;48.886;8.728;2023-04-22T00:00:32;1.40;;;1.40;;
2866;SDS011;1441;48.886;8.728;2023-04-22T00:02:59;3.23;;;1.03;;
2866;SDS011;1441;48.886;8.728;2023-04-22T00:05:27;1.20;;;1.10;;
2866;SDS011;1441;48.886;8.728;2023-04-22T00:07:53;1.57;;;1.10;;
2866;SDS011;1441;48.886;8.728;2023-04-22T00:10:18;2.70;;;1.97;;
2866;SDS011;1441;48.886;8.728;2023-04-22T00:12:44;3.00;;;2.60;;
2866;SDS011;1441;48.886;8.728;2023-04-22T00:15:10;2.53;;;2.40;;
2866;SDS011;1441;48.886;8.728;2023-04-22T00:17:36;2.77;;;2.60;;
2866;SDS011;1441;48.886;8.728;2023-04-22T00:20:02;2.70;;;2.50;;
2866;SDS011;1441;48.886;8.728;2023-04-22T00:22:28;2.23;;;2.03;;
2866;SDS011;1441;48.886;8.728;2023-04-22T00:24:53;3.67;;;2.37;;
2866;SDS011;1441;48.886;8.728;2023-04-22T00:27:19;3.93;;;1.97;;
2866;SDS011;1441;48.886;8.728;2023-04-22T00:29:45;2.07;;;1.97;;
2866;SDS011;1441;48.886;8.728;2023-04-22T00:32:10;6.40;;;2.37;;
2866;SDS011;1441;48.886;8.728;2023-04-22T00:34:36;2.87;;;2.00;;
2866;SDS011;1441;48.886;8.728;2023-04-22T00:37:01;2.10;;;2.00;;
2866;SDS011;1441;48.886;8.728;2023-04-22T00:39:27;7.80;;;1.90;;
2866;SDS011;1441;48.886;8.728;2023-04-22T00:41:53;3.30;;;2.70;;
2866;SDS011;1441;48.886;8.728;2023-04-22T00:44:19;3.53;;;3.03;;
2866;SDS011;1441;48.886;8.728;2023-04-22T00:46:46;2.83;;;2.63;;
2866;SDS011;1441;48.886;8.728;2023-04-22T00:49:12;3.73;;;3.30;;
2866;SDS011;1441;48.886;8.728;2023-04-22T00:51:39;2.30;;;2.20;;
2866;SDS011;1441;48.886;8.728;2023-04-22T00:54:05;3.77;;;2.43;;
2866;SDS011;1441;48.886;8.728;2023-04-22T00:56:31;6.70;;;2.93;;
2866;SDS011;1441;48.886;8.728;2023-04-22T00:59:00;2.77;;;2.57;;
2866;SDS011;1441;48.886;8.728;2023-04-22T01:01:25;7.27;;;3.03;;
2866;SDS011;1441;48.886;8.728;2023-04-22T01:03:52;3.77;;;3.10;;
2866;SDS011;1441;48.886;8.728;2023-04-22T01:06:18;4.80;;;3.80;;
2866;SDS011;1441;48.886;8.728;2023-04-22T01:08:44;6.03;;;3.30;;
2866;SDS011;1441;48.886;8.728;2023-04-22T01:11:10;2.80;;;2.70;;
2866;SDS011;1441;48.886;8.728;2023-04-22T01:13:36;7.90;;;3.47;;
2866;SDS011;1441;48.886;8.728;2023-04-22T01:16:02;3.00;;;2.67;;
2866;SDS011;1441;48.886;8.728;2023-04-22T01:18:32;6.13;;;2.60;;
2866;SDS011;1441;48.886;8.728;2023-04-22T01:20:58;3.63;;;2.90;;
2866;SDS011;1441;48.886;8.728;2023-04-22T01:23:23;3.77;;;3.23;;
2866;SDS011;1441;48.886;8.728;2023-04-22T01:25:49;4.70;;;3.47;;
2866;SDS011;1441;48.886;8.728;2023-04-22T01:28:15;3.83;;;3.20;;
2866;SDS011;1441;48.886;8.728;2023-04-22T01:30:42;6.37;;;3.13;;
2866;SDS011;1441;48.886;8.728;2023-04-22T01:33:08;3.40;;;2.70;;
2866;SDS011;1441;48.886;8.728;2023-04-22T01:35:34;3.33;;;2.83;;
2866;SDS011;1441;48.886;8.728;2023-04-22T01:38:04;2.27;;;1.50;;
2866;SDS011;1441;48.886;8.728;2023-04-22T01:40:31;5.60;;;2.80;;
2866;SDS011;1441;48.886;8.728;2023-04-22T01:42:58;3.20;;;3.00;;
2866;SDS011;1441;48.886;8.728;2023-04-22T01:45:25;7.27;;;3.27;;
2866;SDS011;1441;48.886;8.728;2023-04-22T01:47:51;4.33;;;3.93;;
2866;SDS011;1441;48.886;8.728;2023-04-22T01:50:17;3.43;;;2.43;;
2866;SDS011;1441;48.886;8.728;2023-04-22T01:52:42;1.90;;;1.80;;
2866;SDS011;1441;48.886;8.728;2023-04-22T01:55:08;1.80;;;1.40;;
2866;SDS011;1441;48.886;8.728;2023-04-22T01:57:34;1.57;;;1.47;;
2866;SDS011;1441;48.886;8.728;2023-04-22T02:00:00;1.37;;;1.33;;
2866;SDS011;1441;48.886;8.728;2023-04-22T02:02:25;1.10;;;1.03;;
2866;SDS011;1441;48.886;8.728;2023-04-22T02:04:51;1.33;;;1.23;;
2866;SDS011;1441;48.886;8.728;2023-04-22T02:07:17;2.10;;;1.10;;
2866;SDS011;1441;48.886;8.728;2023-04-22T02:09:42;1.33;;;1.30;;
2866;SDS011;1441;48.886;8.728;2023-04-22T02:12:08;0.97;;;0.87;;
2866;SDS011;1441;48.886;8.728;2023-04-22T02:14:34;1.33;;;1.23;;
2866;SDS011;1441;48.886;8.728;2023-04-22T02:16:59;1.30;;;1.20;;
2866;SDS011;1441;48.886;8.728;2023-04-22T02:19:26;1.20;;;1.17;;
2866;SDS011;1441;48.886;8.728;2023-04-22T02:21:52;1.40;;;1.40;;
2866;SDS011;1441;48.886;8.728;2023-04-22T02:24:18;1.10;;;1.10;;
2866;SDS011;1441;48.886;8.728;2023-04-22T02:26:44;3.20;;;2.90;;
2866;SDS011;1441;48.886;8.728;2023-04-22T02:29:11;3.80;;;3.50;;
2866;SDS011;1441;48.886;8.728;2023-04-22T02:31:37;4.60;;;4.10;;
2866;SDS011;1441;48.886;8.728;2023-04-22T02:34:02;2.80;;;2.60;;
2866;SDS011;1441;48.886;8.728;2023-04-22T02:36:28;2.50;;;2.30;;
2866;SDS011;1441;48.886;8.728;2023-04-22T02:38:54;2.50;;;1.67;;
2866;SDS011;1441;48.886;8.728;2023-04-22T02:41:19;1.87;;;1.53;;
2866;SDS011;1441;48.886;8.728;2023-04-22T02:43:45;1.57;;;1.47;;
2866;SDS011;1441;48.886;8.728;2023-04-22T02:46:13;1.60;;;1.60;;
2866;SDS011;1441;48.886;8.728;2023-04-22T02:48:40;2.23;;;2.03;;
2866;SDS011;1441;48.886;8.728;2023-04-22T02:51:06;4.10;;;1.60;;
2866;SDS011;1441;48.886;8.728;2023-04-22T02:53:32;1.70;;;1.60;;
2866;SDS011;1441;48.886;8.728;2023-04-22T02:55:58;2.00;;;1.90;;
2866;SDS011;1441;48.886;8.728;2023-04-22T02:58:23;5.23;;;1.83;;
2866;SDS011;1441;48.886;8.728;2023-04-22T03:00:50;1.60;;;1.50;;
2866;SDS011;1441;48.886;8.728;2023-04-22T03:03:16;2.00;;;1.77;;
2866;SDS011;1441;48.886;8.728;2023-04-22T03:05:41;1.73;;;1.63;;
2866;SDS011;1441;48.886;8.728;2023-04-22T03:08:07;5.23;;;1.60;;
2866;SDS011;1441;48.886;8.728;2023-04-22T03:10:33;2.40;;;2.30;;
2866;SDS011;1441;48.886;8.728;2023-04-22T03:12:58;5.00;;;2.93;;
2866;SDS011;1441;48.886;8.728;2023-04-22T03:15:24;3.47;;;3.20;;
2866;SDS011;1441;48.886;8.728;2023-04-22T03:17:49;6.83;;;3.80;;
2866;SDS011;1441;48.886;8.728;2023-04-22T03:20:15;3.63;;;3.37;;
2866;SDS011;1441;48.886;8.728;2023-04-22T03:22:41;7.70;;;2.87;;
2866;SDS011;1441;48.886;8.728;2023-04-22T03:25:06;3.60;;;3.30;;
2866;SDS011;1441;48.886;8.728;2023-04-22T03:27:34;5.07;;;3.30;;
2866;SDS011;1441;48.886;8.728;2023-04-22T03:29:59;3.40;;;3.07;;
2866;SDS011;1441;48.886;8.728;2023-04-22T03:32:25;7.40;;;3.07;;
2866;SDS011;1441;48.886;8.728;2023-04-22T03:34:51;3.50;;;3.20;;
2866;SDS011;1441;48.886;8.728;2023-04-22T03:37:16;3.60;;;3.10;;
2866;SDS011;1441;48.886;8.728;2023-04-22T03:39:42;4.47;;;3.00;;
2866;SDS011;1441;48.886;8.728;2023-04-22T03:42:09;4.57;;;3.80;;
2866;SDS011;1441;48.886;8.728;2023-04-22T03:44:35;3.30;;;3.00;;
2866;SDS011;1441;48.886;8.728;2023-04-22T03:47:00;3.73;;;3.00;;
2866;SDS011;1441;48.886;8.728;2023-04-22T03:49:26;5.40;;;2.83;;
2866;SDS011;1441;48.886;8.728;2023-04-22T03:51:51;3.30;;;3.10;;
2866;SDS011;1441;48.886;8.728;2023-04-22T03:54:17;5.73;;;3.93;;
2866;SDS011;1441;48.886;8.728;2023-04-22T03:56:43;4.37;;;2.90;;
2866;SDS011;1441;48.886;8.728;2023-04-22T03:59:08;3.30;;;3.00;;
2866;SDS011;1441;48.886;8.728;2023-04-22T04:01:34;3.47;;;3.27;;
2866;SDS011;1441;48.886;8.728;2023-04-22T04:04:00;3.17;;;2.97;;
2866;SDS011;1441;48.886;8.728;2023-04-22T04:06:26;10.57;;;3.57;;
2866;SDS011;1441;48.886;8.728;2023-04-22T04:08:52;5.23;;;4.10;;
2866;SDS011;1441;48.886;8.728;2023-04-22T04:11:18;4.63;;;4.23;;
2866;SDS011;1441;48.886;8.728;2023-04-22T04:13:43;6.80;;;3.97;;
2866;SDS011;1441;48.886;8.728;2023-04-22T04:16:09;4.37;;;3.97;;
2866;SDS011;1441;48.886;8.728;2023-04-22T04:18:34;3.60;;;3.30;;
2866;SDS011;1441;48.886;8.728;2023-04-22T04:21:00;6.20;;;3.87;;
2866;SDS011;1441;48.886;8.728;2023-04-22T04:23:26;6.83;;;4.63;;
2866;SDS011;1441;48.886;8.728;2023-04-22T04:25:52;4.80;;;4.40;;
2866;SDS011;1441;48.886;8.728;2023-04-22T04:28:19;9.23;;;6.00;;
2866;SDS011;1441;48.886;8.728;2023-04-22T04:30:46;7.23;;;4.97;;
2866;SDS011;1441;48.886;8.728;2023-04-22T04:33:11;4.80;;;4.40;;
2866;SDS011;1441;48.886;8.728;2023-04-22T04:35:40;4.50;;;4.10;;
2866;SDS011;1441;48.886;8.728;2023-04-22T04:38:07;5.67;;;4.90;;
2866;SDS011;1441;48.886;8.728;2023-04-22T04:40:33;5.07;;;4.57;;
2866;SDS011;1441;48.886;8.728;2023-04-22T04:42:59;6.70;;;4.10;;
2866;SDS011;1441;48.886;8.728;2023-04-22T04:45:26;3.20;;;3.00;;
2866;SDS011;1441;48.886;8.728;2023-04-22T04:47:53;4.40;;;4.00;;
2866;SDS011;1441;48.886;8.728;2023-04-22T04:50:18;4.97;;;3.93;;
2866;SDS011;1441;48.886;8.728;2023-04-22T04:52:46;5.10;;;4.60;;
2866;SDS011;1441;48.886;8.728;2023-04-22T04:55:13;5.60;;;4.10;;
2866;SDS011;1441;48.886;8.728;2023-04-22T04:57:39;4.83;;;4.40;;
2866;SDS011;1441;48.886;8.728;2023-04-22T05:00:05;4.40;;;4.00;;
2866;SDS011;1441;48.886;8.728;2023-04-22T05:02:32;10.33;;;4.63;;
2866;SDS011;1441;48.886;8.728;2023-04-22T05:04:57;4.00;;;3.50;;
2866;SDS011;1441;48.886;8.728;2023-04-22T05:07:23;8.53;;;4.97;;
2866;SDS011;1441;48.886;8.728;2023-04-22T05:09:49;5.27;;;4.40;;
2866;SDS011;1441;48.886;8.728;2023-04-22T05:12:14;4.47;;;4.07;;
2866;SDS011;1441;48.886;8.728;2023-04-22T05:14:40;4.80;;;4.30;;
2866;SDS011;1441;48.886;8.728;2023-04-22T05:17:06;5.63;;;4.10;;
2866;SDS011;1441;48.886;8.728;2023-04-22T05:19:32;4.70;;;4.10;;
2866;SDS011;1441;48.886;8.728;2023-04-22T05:21:57;4.10;;;3.80;;
2866;SDS011;1441;48.886;8.728;2023-04-22T05:24:23;5.50;;;4.33;;
2866;SDS011;1441;48.886;8.728;2023-04-22T05:26:49;5.40;;;4.40;;
2866;SDS011;1441;48.886;8.728;2023-04-22T05:29:15;15.93;;;4.47;;
2866;SDS011;1441;48.886;8.728;2023-04-22T05:31:40;6.50;;;4.43;;
2866;SDS011;1441;48.886;8.728;2023-04-22T05:34:06;6.33;;;4.30;;
2866;SDS011;1441;48.886;8.728;2023-04-22T05:36:31;4.80;;;3.90;;
2866;SDS011;1441;48.886;8.728;2023-04-22T05:38:57;5.30;;;4.80;;
2866;SDS011;1441;48.886;8.728;2023-04-22T05:41:23;6.03;;;4.60;;
2866;SDS011;1441;48.886;8.728;2023-04-22T05:43:48;3.83;;;3.40;;
2866;SDS011;1441;48.886;8.728;2023-04-22T05:46:14;4.30;;;4.00;;
2866;SDS011;1441;48.886;8.728;2023-04-22T05:48:40;4.93;;;4.30;;
2866;SDS011;1441;48.886;8.728;2023-04-22T05:51:05;5.30;;;4.80;;
2866;SDS011;1441;48.886;8.728;2023-04-22T05:53:31;5.30;;;4.80;;
2866;SDS011;1441;48.886;8.728;2023-04-22T05:55:56;5.10;;;4.70;;
2866;SDS011;1441;48.886;8.728;2023-04-22T05:58:23;6.07;;;4.80;;
2866;SDS011;1441;48.886;8.728;2023-04-22T06:00:48;12.13;;;6.50;;
2866;SDS011;1441;48.886;8.728;2023-04-22T06:03:14;5.27;;;4.03;;
2866;SDS011;1441;48.886;8.728;2023-04-22T06:05:39;6.33;;;4.50;;
2866;SDS011;1441;48.886;8.728;2023-04-22T06:08:06;9.10;;;5.10;;
2866;SDS011;1441;48.886;8.728;2023-04-22T06:10:31;5.10;;;4.63;;
2866;SDS011;1441;48.886;8.728;2023-04-22T06:12:57;4.23;;;3.93;;
2866;SDS011;1441;48.886;8.728;2023-04-22T06:15:23;4.93;;;4.47;;
2866;SDS011;1441;48.886;8.728;2023-04-22T06:17:49;4.97;;;4.57;;
2866;SDS011;1441;48.886;8.728;2023-04-22T06:20:15;5.33;;;4.83;;
2866;SDS011;1441;48.886;8.728;2023-04-22T06:22:40;5.17;;;4.67;;
2866;SDS011;1441;48.886;8.728;2023-04-22T06:25:06;4.47;;;3.93;;
2866;SDS011;1441;48.886;8.728;2023-04-22T06:27:32;5.73;;;5.20;;
2866;SDS011;1441;48.886;8.728;2023-04-22T06:29:57;7.23;;;4.60;;
2866;SDS011;1441;48.886;8.728;2023-04-22T06:32:23;6.83;;;4.33;;
2866;SDS011;1441;48.886;8.728;2023-04-22T06:34:48;7.13;;;4.30;;
2866;SDS011;1441;48.886;8.728;2023-04-22T06:37:14;4.93;;;3.50;;
2866;SDS011;1441;48.886;8.728;2023-04-22T06:39:40;3.77;;;3.57;;
2866;SDS011;1441;48.886;8.728;2023-04-22T06:42:06;3.70;;;3.10;;
2866;SDS011;1441;48.886;8.728;2023-04-22T06:44:31;3.63;;;3.43;;
2866;SDS011;1441;48.886;8.728;2023-04-22T06:46:57;3.93;;;3.60;;
2866;SDS011;1441;48.886;8.728;2023-04-22T06:49:22;4.00;;;3.60;;
2866;SDS011;1441;48.886;8.728;2023-04-22T06:51:48;4.67;;;4.27;;
2866;SDS011;1441;48.886;8.728;2023-04-22T06:54:13;4.40;;;4.00;;
2866;SDS011;1441;48.886;8.728;2023-04-22T06:56:39;4.40;;;3.87;;
2866;SDS011;1441;48.886;8.728;2023-04-22T06:59:05;5.87;;;4.60;;
2866;SDS011;1441;48.886;8.728;2023-04-22T07:01:31;4.27;;;3.87;;
2866;SDS011;1441;48.886;8.728;2023-04-22T07:03:57;3.97;;;3.70;;
2866;SDS011;1441;48.886;8.728;2023-04-22T07:06:23;3.63;;;3.33;;
2866;SDS011;1441;48.886;8.728;2023-04-22T07:08:49;12.57;;;3.50;;
2866;SDS011;1441;48.886;8.728;2023-04-22T07:11:14;3.80;;;3.60;;
2866;SDS011;1441;48.886;8.728;2023-04-22T07:13:40;3.90;;;2.90;;
2866;SDS011;1441;48.886;8.728;2023-04-22T07:16:05;6.40;;;2.83;;
2866;SDS011;1441;48.886;8.728;2023-04-22T07:18:31;2.57;;;2.37;;
2866;SDS011;1441;48.886;8.728;2023-04-22T07:20:59;3.00;;;2.80;;
2866;SDS011;1441;48.886;8.728;2023-04-22T07:23:24;2.80;;;2.40;;
2866;SDS011;1441;48.886;8.728;2023-04-22T07:25:51;2.50;;;2.33;;
2866;SDS011;1441;48.886;8.728;2023-04-22T07:28:17;3.00;;;2.33;;
2866;SDS011;1441;48.886;8.728;2023-04-22T07:30:43;3.00;;;2.80;;
2866;SDS011;1441;48.886;8.728;2023-04-22T07:33:08;4.43;;;2.53;;
2866;SDS011;1441;48.886;8.728;2023-04-22T07:35:35;2.73;;;2.57;;
2866;SDS011;1441;48.886;8.728;2023-04-22T07:38:01;5.20;;;3.00;;
2866;SDS011;1441;48.886;8.728;2023-04-22T07:40:26;3.03;;;2.83;;
2866;SDS011;1441;48.886;8.728;2023-04-22T07:42:52;3.40;;;2.63;;
2866;SDS011;1441;48.886;8.728;2023-04-22T07:45:17;3.10;;;2.80;;
2866;SDS011;1441;48.886;8.728;2023-04-22T07:47:43;2.60;;;2.50;;
2866;SDS011;1441;48.886;8.728;2023-04-22T07:50:09;3.73;;;2.80;;
2866;SDS011;1441;48.886;8.728;2023-04-22T07:52:35;5.57;;;2.67;;
2866;SDS011;1441;48.886;8.728;2023-04-22T07:55:01;2.73;;;1.90;;
2866;SDS011;1441;48.886;8.728;2023-04-22T07:57:26;2.40;;;2.30;;
2866;SDS011;1441;48.886;8.728;2023-04-22T07:59:52;3.50;;;2.27;;
2866;SDS011;1441;48.886;8.728;2023-04-22T08:02:17;2.67;;;2.10;;
2866;SDS011;1441;48.886;8.728;2023-04-22T08:04:43;4.90;;;2.60;;
2866;SDS011;1441;48.886;8.728;2023-04-22T08:07:09;2.30;;;2.13;;
2866;SDS011;1441;48.886;8.728;2023-04-22T08:09:34;6.30;;;1.83;;
2866;SDS011;1441;48.886;8.728;2023-04-22T08:12:00;2.40;;;1.93;;
2866;SDS011;1441;48.886;8.728;2023-04-22T08:14:26;2.60;;;2.10;;
2866;SDS011;1441;48.886;8.728;2023-04-22T08:16:52;6.90;;;2.43;;
2866;SDS011;1441;48.886;8.728;2023-04-22T08:19:18;9.53;;;2.20;;
2866;SDS011;1441;48.886;8.728;2023-04-22T08:21:44;2.17;;;1.97;;
2866;SDS011;1441;48.886;8.728;2023-04-22T08:24:10;2.00;;;1.90;;
2866;SDS011;1441;48.886;8.728;2023-04-22T08:26:36;2.63;;;2.13;;
2866;SDS011;1441;48.886;8.728;2023-04-22T08:29:03;3.17;;;1.90;;
2866;SDS011;1441;48.886;8.728;2023-04-22T08:31:29;3.07;;;2.10;;
2866;SDS011;1441;48.886;8.728;2023-04-22T08:33:55;3.17;;;2.03;;
2866;SDS011;1441;48.886;8.728;2023-04-22T08:36:21;1.67;;;1.57;;
2866;SDS011;1441;48.886;8.728;2023-04-22T08:38:49;2.27;;;1.43;;
2866;SDS011;1441;48.886;8.728;2023-04-22T08:41:15;1.73;;;1.67;;
2866;SDS011;1441;48.886;8.728;2023-04-22T08:43:43;1.43;;;1.20;;
2866;SDS011;1441;48.886;8.728;2023-04-22T08:46:09;2.60;;;1.40;;
2866;SDS011;1441;48.886;8.728;2023-04-22T08:48:35;3.47;;;2.23;;
2866;SDS011;1441;48.886;8.728;2023-04-22T08:51:01;2.13;;;1.40;;
2866;SDS011;1441;48.886;8.728;2023-04-22T08:53:27;1.40;;;1.30;;
2866;SDS011;1441;48.886;8.728;2023-04-22T08:55:54;1.33;;;1.10;;
2866;SDS011;1441;48.886;8.728;2023-04-22T08:58:20;1.60;;;1.50;;
2866;SDS011;1441;48.886;8.728;2023-04-22T09:00:46;2.50;;;1.87;;
2866;SDS011;1441;48.886;8.728;2023-04-22T09:03:12;1.57;;;1.47;;
2866;SDS011;1441;48.886;8.728;2023-04-22T09:05:40;3.50;;;1.50;;
2866;SDS011;1441;48.886;8.728;2023-04-22T09:08:07;4.70;;;1.50;;
2866;SDS011;1441;48.886;8.728;2023-04-22T09:10:37;3.03;;;1.40;;
2866;SDS011;1441;48.886;8.728;2023-04-22T09:13:03;1.80;;;1.60;;
2866;SDS011;1441;48.886;8.728;2023-04-22T09:15:30;1.57;;;1.47;;
2866;SDS011;1441;48.886;8.728;2023-04-22T09:17:57;1.40;;;1.30;;
2866;SDS011;1441;48.886;8.728;2023-04-22T09:20:26;2.40;;;1.90;;
2866;SDS011;1441;48.886;8.728;2023-04-22T09:22:53;4.20;;;1.80;;
2866;SDS011;1441;48.886;8.728;2023-04-22T09:25:24;3.40;;;2.30;;
2866;SDS011;1441;48.886;8.728;2023-04-22T09:27:52;5.60;;;2.30;;
2866;SDS011;1441;48.886;8.728;2023-04-22T09:30:26;2.00;;;1.90;;
2866;SDS011;1441;48.886;8.728;2023-04-22T09:33:02;3.07;;;1.83;;
2866;SDS011;1441;48.886;8.728;2023-04-22T09:37:56;1.60;;;1.50;;
2866;SDS011;1441;48.886;8.728;2023-04-22T09:40:23;4.70;;;2.07;;
2866;SDS011;1441;48.886;8.728;2023-04-22T09:45:28;1.47;;;1.47;;
2866;SDS011;1441;48.886;8.728;2023-04-22T09:48:00;1.97;;;1.80;;
2866;SDS011;1441;48.886;8.728;2023-04-22T09:50:44;3.63;;;2.63;;
2866;SDS011;1441;48.886;8.728;2023-04-22T09:53:13;3.90;;;2.10;;
2866;SDS011;1441;48.886;8.728;2023-04-22T09:55:40;2.13;;;2.03;;
2866;SDS011;1441;48.886;8.728;2023-04-22T09:58:09;3.87;;;2.20;;
2866;SDS011;1441;48.886;8.728;2023-04-22T10:03:12;2.23;;;2.13;;
2866;SDS011;1441;48.886;8.728;2023-04-22T10:05:38;2.00;;;1.90;;
2866;SDS011;1441;48.886;8.728;2023-04-22T10:08:06;2.77;;;2.00;;
2866;SDS011;1441;48.886;8.728;2023-04-22T10:10:33;3.13;;;2.00;;
2866;SDS011;1441;48.886;8.728;2023-04-22T10:12:59;3.43;;;2.57;;
2866;SDS011;1441;48.886;8.728;2023-04-22T10:15:29;5.67;;;2.60;;
2866;SDS011;1441;48.886;8.728;2023-04-22T10:17:58;2.50;;;2.10;;
2866;SDS011;1441;48.886;8.728;2023-04-22T10:20:24;2.10;;;1.90;;
2866;SDS011;1441;48.886;8.728;2023-04-22T10:22:53;2.30;;;2.10;;
2866;SDS011;1441;48.886;8.728;2023-04-22T10:25:23;5.77;;;1.63;;
2866;SDS011;1441;48.886;8.728;2023-04-22T10:27:53;2.30;;;1.83;;
2866;SDS011;1441;48.886;8.728;2023-04-22T10:30:27;1.27;;;1.17;;
2866;SDS011;1441;48.886;8.728;2023-04-22T10:32:54;4.33;;;2.07;;
2866;SDS011;1441;48.886;8.728;2023-04-22T10:35:25;8.13;;;1.80;;
2866;SDS011;1441;48.886;8.728;2023-04-22T10:37:53;5.07;;;1.40;;
2866;SDS011;1441;48.886;8.728;2023-04-22T10:40:19;1.60;;;1.13;;
2866;SDS011;1441;48.886;8.728;2023-04-22T10:42:49;2.70;;;1.17;;
2866;SDS011;1441;48.886;8.728;2023-04-22T10:45:16;1.60;;;1.33;;
2866;SDS011;1441;48.886;8.728;2023-04-22T10:47:42;3.13;;;1.63;;
2866;SDS011;1441;48.886;8.728;2023-04-22T10:50:09;6.63;;;1.70;;
2866;SDS011;1441;48.886;8.728;2023-04-22T10:52:35;0.90;;;0.90;;
2866;SDS011;1441;48.886;8.728;2023-04-22T10:55:01;1.30;;;1.20;;
2866;SDS011;1441;48.886;8.728;2023-04-22T10:57:47;1.20;;;1.10;;
2866;SDS011;1441;48.886;8.728;2023-04-22T11:02:45;1.83;;;1.73;;
2866;SDS011;1441;48.886;8.728;2023-04-22T11:05:18;2.60;;;1.20;;
2866;SDS011;1441;48.886;8.728;2023-04-22T11:07:54;1.17;;;1.17;;
2866;SDS011;1441;48.886;8.728;2023-04-22T11:13:05;1.37;;;1.07;;
2866;SDS011;1441;48.886;8.728;2023-04-22T11:15:42;1.10;;;1.10;;
2866;SDS011;1441;48.886;8.728;2023-04-22T11:18:11;2.03;;;1.47;;
2866;SDS011;1441;48.886;8.728;2023-04-22T11:20:39;1.33;;;1.23;;
2866;SDS011;1441;48.886;8.728;2023-04-22T11:23:04;0.80;;;0.80;;
2866;SDS011;1441;48.886;8.728;2023-04-22T11:25:30;1.47;;;1.40;;
2866;SDS011;1441;48.886;8.728;2023-04-22T11:27:56;1.40;;;1.30;;
2866;SDS011;1441;48.886;8.728;2023-04-22T11:30:23;3.83;;;1.30;;
2866;SDS011;1441;48.886;8.728;2023-04-22T11:32:50;2.60;;;1.30;;
2866;SDS011;1441;48.886;8.728;2023-04-22T11:35:18;2.10;;;1.30;;
2866;SDS011;1441;48.886;8.728;2023-04-22T11:37:59;4.83;;;1.17;;
2866;SDS011;1441;48.886;8.728;2023-04-22T11:40:36;3.70;;;1.27;;
2866;SDS011;1441;48.886;8.728;2023-04-22T11:43:04;1.63;;;1.10;;
2866;SDS011;1441;48.886;8.728;2023-04-22T11:45:32;1.47;;;1.20;;
2866;SDS011;1441;48.886;8.728;2023-04-22T11:47:59;2.23;;;1.60;;
2866;SDS011;1441;48.886;8.728;2023-04-22T11:50:26;1.30;;;1.20;;
2866;SDS011;1441;48.886;8.728;2023-04-22T11:52:58;3.33;;;1.37;;
2866;SDS011;1441;48.886;8.728;2023-04-22T11:55:26;1.37;;;1.27;;
2866;SDS011;1441;48.886;8.728;2023-04-22T11:58:04;5.90;;;1.47;;
2866;SDS011;1441;48.886;8.728;2023-04-22T12:00:32;2.07;;;1.30;;
2866;SDS011;1441;48.886;8.728;2023-04-22T12:05:35;4.37;;;1.70;;
2866;SDS011;1441;48.886;8.728;2023-04-22T12:08:02;1.30;;;1.20;;
2866;SDS011;1441;48.886;8.728;2023-04-22T12:10:47;4.87;;;2.13;;
2866;SDS011;1441;48.886;8.728;2023-04-22T12:13:19;1.77;;;1.67;;
2866;SDS011;1441;48.886;8.728;2023-04-22T12:15:45;2.07;;;1.70;;
2866;SDS011;1441;48.886;8.728;2023-04-22T12:18:11;2.20;;;1.60;;
2866;SDS011;1441;48.886;8.728;2023-04-22T12:20:38;1.50;;;1.40;;
2866;SDS011;1441;48.886;8.728;2023-04-22T12:23:05;4.10;;;2.13;;
2866;SDS011;1441;48.886;8.728;2023-04-22T12:25:36;1.77;;;1.67;;
2866;SDS011;1441;48.886;8.728;2023-04-22T12:28:02;2.60;;;1.60;;
2866;SDS011;1441;48.886;8.728;2023-04-22T12:30:27;1.50;;;1.40;;
2866;SDS011;1441;48.886;8.728;2023-04-22T12:32:53;1.67;;;1.57;;
2866;SDS011;1441;48.886;8.728;2023-04-22T12:35:19;1.30;;;1.17;;
2866;SDS011;1441;48.886;8.728;2023-04-22T12:37:45;2.73;;;1.30;;
2866;SDS011;1441;48.886;8.728;2023-04-22T12:40:10;3.30;;;1.50;;
2866;SDS011;1441;48.886;8.728;2023-04-22T12:42:36;2.23;;;1.17;;
2866;SDS011;1441;48.886;8.728;2023-04-22T12:45:01;3.70;;;2.13;;
2866;SDS011;1441;48.886;8.728;2023-04-22T12:47:27;2.40;;;1.60;;
2866;SDS011;1441;48.886;8.728;2023-04-22T12:49:53;2.80;;;1.37;;
2866;SDS011;1441;48.886;8.728;2023-04-22T12:52:18;3.00;;;1.70;;
2866;SDS011;1441;48.886;8.728;2023-04-22T12:54:44;1.70;;;1.40;;
2866;SDS011;1441;48.886;8.728;2023-04-22T12:57:09;3.00;;;2.00;;
2866;SDS011;1441;48.886;8.728;2023-04-22T12:59:35;3.13;;;1.70;;
2866;SDS011;1441;48.886;8.728;2023-04-22T13:02:01;3.60;;;1.73;;
2866;SDS011;1441;48.886;8.728;2023-04-22T13:04:26;3.53;;;1.70;;
2866;SDS011;1441;48.886;8.728;2023-04-22T13:06:52;2.33;;;1.60;;
2866;SDS011;1441;48.886;8.728;2023-04-22T13:09:24;3.40;;;1.63;;
2866;SDS011;1441;48.886;8.728;2023-04-22T13:11:50;2.37;;;1.37;;
2866;SDS011;1441;48.886;8.728;2023-04-22T13:14:16;5.60;;;1.40;;
2866;SDS011;1441;48.886;8.728;2023-04-22T13:16:43;2.20;;;1.20;;
2866;SDS011;1441;48.886;8.728;2023-04-22T13:19:09;2.50;;;1.60;;
2866;SDS011;1441;48.886;8.728;2023-04-22T13:21:34;2.03;;;1.40;;
2866;SDS011;1441;48.886;8.728;2023-04-22T13:24:00;6.27;;;1.40;;
2866;SDS011;1441;48.886;8.728;2023-04-22T13:26:26;3.13;;;1.27;;
2866;SDS011;1441;48.886;8.728;2023-04-22T13:28:51;6.37;;;2.10;;
2866;SDS011;1441;48.886;8.728;2023-04-22T13:31:17;2.70;;;1.60;;
2866;SDS011;1441;48.886;8.728;2023-04-22T13:33:43;5.30;;;1.67;;
2866;SDS011;1441;48.886;8.728;2023-04-22T13:36:09;2.00;;;1.40;;
2866;SDS011;1441;48.886;8.728;2023-04-22T13:38:35;1.13;;;0.90;;
2866;SDS011;1441;48.886;8.728;2023-04-22T13:41:00;2.63;;;2.43;;
2866;SDS011;1441;48.886;8.728;2023-04-22T13:43:26;3.73;;;2.73;;
2866;SDS011;1441;48.886;8.728;2023-04-22T13:45:53;2.57;;;2.37;;
2866;SDS011;1441;48.886;8.728;2023-04-22T13:48:18;3.27;;;2.97;;
2866;SDS011;1441;48.886;8.728;2023-04-22T13:50:44;2.30;;;2.10;;
2866;SDS011;1441;48.886;8.728;2023-04-22T13:53:10;1.50;;;1.40;;
2866;SDS011;1441;48.886;8.728;2023-04-22T13:55:38;1.37;;;1.20;;
2866;SDS011;1441;48.886;8.728;2023-04-22T13:58:04;2.53;;;1.53;;
2866;SDS011;1441;48.886;8.728;2023-04-22T14:00:32;2.60;;;1.63;;
2866;SDS011;1441;48.886;8.728;2023-04-22T14:02:58;1.67;;;1.63;;
2866;SDS011;1441;48.886;8.728;2023-04-22T14:05:24;4.43;;;1.70;;
2866;SDS011;1441;48.886;8.728;2023-04-22T14:07:50;3.00;;;1.40;;
2866;SDS011;1441;48.886;8.728;2023-04-22T14:10:16;2.30;;;2.10;;
2866;SDS011;1441;48.886;8.728;2023-04-22T14:12:44;2.50;;;1.50;;
2866;SDS011;1441;48.886;8.728;2023-04-22T14:15:10;2.40;;;1.47;;
2866;SDS011;1441;48.886;8.728;2023-04-22T14:17:36;3.30;;;1.50;;
2866;SDS011;1441;48.886;8.728;2023-04-22T14:20:02;3.10;;;1.57;;
2866;SDS011;1441;48.886;8.728;2023-04-22T14:22:29;1.40;;;1.30;;
2866;SDS011;1441;48.886;8.728;2023-04-22T14:24:54;2.73;;;2.27;;
2866;SDS011;1441;48.886;8.728;2023-04-22T14:27:20;8.40;;;3.70;;
2866;SDS011;1441;48.886;8.728;2023-04-22T14:29:46;5.90;;;1.90;;
2866;SDS011;1441;48.886;8.728;2023-04-22T14:32:11;1.83;;;1.60;;
2866;SDS011;1441;48.886;8.728;2023-04-22T14:34:37;4.23;;;1.70;;
2866;SDS011;1441;48.886;8.728;2023-04-22T14:37:03;4.33;;;1.57;;
2866;SDS011;1441;48.886;8.728;2023-04-22T14:39:29;1.57;;;1.17;;
2866;SDS011;1441;48.886;8.728;2023-04-22T14:41:55;1.70;;;1.10;;
2866;SDS011;1441;48.886;8.728;2023-04-22T14:44:21;2.00;;;1.57;;
2866;SDS011;1441;48.886;8.728;2023-04-22T14:46:47;3.53;;;1.87;;
2866;SDS011;1441;48.886;8.728;2023-04-22T14:49:13;2.80;;;2.57;;
2866;SDS011;1441;48.886;8.728;2023-04-22T14:51:38;2.70;;;1.80;;
2866;SDS011;1441;48.886;8.728;2023-04-22T14:54:04;2.70;;;2.23;;
2866;SDS011;1441;48.886;8.728;2023-04-22T14:56:29;2.67;;;2.47;;
2866;SDS011;1441;48.886;8.728;2023-04-22T14:58:55;1.90;;;1.70;;
2866;SDS011;1441;48.886;8.728;2023-04-22T15:01:21;3.10;;;1.90;;
2866;SDS011;1441;48.886;8.728;2023-04-22T15:03:46;2.13;;;1.90;;
2866;SDS011;1441;48.886;8.728;2023-04-22T15:06:12;3.93;;;1.33;;
2866;SDS011;1441;48.886;8.728;2023-04-22T15:08:38;1.50;;;1.40;;
2866;SDS011;1441;48.886;8.728;2023-04-22T15:11:04;3.40;;;1.40;;
2866;SDS011;1441;48.886;8.728;2023-04-22T15:13:29;1.60;;;1.40;;
2866;SDS011;1441;48.886;8.728;2023-04-22T15:15:56;1.50;;;1.40;;
2866;SDS011;1441;48.886;8.728;2023-04-22T15:18:21;1.63;;;1.40;;
2866;SDS011;1441;48.886;8.728;2023-04-22T15:20:48;2.00;;;1.23;;
2866;SDS011;1441;48.886;8.728;2023-04-22T15:23:14;1.87;;;1.30;;
2866;SDS011;1441;48.886;8.728;2023-04-22T15:25:40;2.20;;;1.50;;